createdAt,value
2019-05-13T00:00:44.723Z,8.17
2019-05-13T00:03:14.093Z,8.21
2019-05-13T00:05:44.578Z,8.22
2019-05-13T00:08:14.265Z,8.18
2019-05-13T00:10:44.135Z,8.16
2019-05-13T00:13:14.781Z,8.12
2019-05-13T00:15:44.723Z,8.08
2019-05-13T00:18:14.573Z,8.08
2019-05-13T00:20:44.422Z,8.04
2019-05-13T00:23:14.443Z,8.05
2019-05-13T00:25:44.633Z,8.06
2019-05-13T00:28:14.468Z,8.07
2019-05-13T00:30:44.743Z,8.07
2019-05-13T00:33:14.285Z,8.08
2019-05-13T00:35:44.200Z,8.06
2019-05-13T00:38:14.381Z,8.04
2019-05-13T00:40:44.371Z,8.01
2019-05-13T00:43:14.546Z,7.98
2019-05-13T00:45:44.758Z,7.95
2019-05-13T00:48:14.501Z,7.97
2019-05-13T00:50:44.399Z,7.98
2019-05-13T00:53:14.180Z,7.99
2019-05-13T00:55:44.498Z,8.02
2019-05-13T00:58:14.272Z,8.00
2019-05-13T01:00:44.847Z,7.99
2019-05-13T01:03:14.579Z,7.97
2019-05-13T01:05:44.641Z,7.96
2019-05-13T01:08:14.976Z,7.96
2019-05-13T01:10:45.169Z,7.97
2019-05-13T01:13:14.731Z,7.95
2019-05-13T01:15:44.573Z,7.94
2019-05-13T01:18:14.375Z,7.92
2019-05-13T01:20:44.093Z,7.90
2019-05-13T01:23:14.129Z,7.88
2019-05-13T01:25:44.581Z,7.85
2019-05-13T01:28:15.347Z,7.83
2019-05-13T01:30:44.724Z,7.82
2019-05-13T01:33:14.587Z,7.79
2019-05-13T01:35:44.724Z,7.77
2019-05-13T01:38:13.965Z,7.74
2019-05-13T01:40:44.001Z,7.72
2019-05-13T01:43:14.591Z,7.72
2019-05-13T01:45:44.342Z,7.71
2019-05-13T01:48:14.300Z,7.72
2019-05-13T01:50:44.676Z,7.68
2019-05-13T01:53:14.680Z,7.65
2019-05-13T01:55:44.458Z,7.63
2019-05-13T01:58:14.761Z,7.61
2019-05-13T02:00:44.619Z,7.60
2019-05-13T02:03:14.721Z,7.59
2019-05-13T02:05:44.518Z,7.60
2019-05-13T02:08:14.458Z,7.59
2019-05-13T02:10:54.653Z,7.58
2019-05-13T02:13:25.022Z,7.57
2019-05-13T02:15:55.746Z,7.57
2019-05-13T02:18:25.889Z,7.56
2019-05-13T02:20:55.958Z,7.53
2019-05-13T02:23:25.737Z,7.53
2019-05-13T02:25:55.115Z,7.53
2019-05-13T02:28:25.222Z,7.52
2019-05-13T02:30:56.491Z,7.52
2019-05-13T02:33:26.411Z,7.50
2019-05-13T02:35:55.553Z,7.48
2019-05-13T02:38:30.214Z,7.46
2019-05-13T02:40:55.960Z,7.42
2019-05-13T02:43:25.195Z,7.38
2019-05-13T02:45:54.872Z,7.34
2019-05-13T02:48:24.524Z,7.33
2019-05-13T02:50:54.703Z,7.32
2019-05-13T02:53:24.568Z,7.30
2019-05-13T02:55:54.533Z,7.31
2019-05-13T02:58:25.098Z,7.33
2019-05-13T03:00:54.771Z,7.34
2019-05-13T03:03:24.207Z,7.36
2019-05-13T03:05:53.778Z,7.40
2019-05-13T03:08:39.508Z,7.45
2019-05-13T03:10:54.408Z,7.44
2019-05-13T03:13:24.365Z,7.43
2019-05-13T03:16:13.644Z,7.43
2019-05-13T03:18:43.761Z,7.43
2019-05-13T03:21:13.620Z,7.45
2019-05-13T03:23:44.307Z,7.46
2019-05-13T03:26:13.861Z,7.47
2019-05-13T03:28:44.067Z,7.47
2019-05-13T03:31:16.589Z,7.45
2019-05-13T03:33:46.959Z,7.46
2019-05-13T03:36:18.097Z,7.49
2019-05-13T03:39:01.435Z,7.52
2019-05-13T03:41:22.526Z,7.52
2019-05-13T03:43:53.467Z,7.52
2019-05-13T03:46:24.566Z,7.54
2019-05-13T03:48:55.329Z,7.53
2019-05-13T03:51:24.777Z,7.50
2019-05-13T03:53:54.180Z,7.50
2019-05-13T03:56:24.189Z,7.50
2019-05-13T03:58:54.130Z,7.49
2019-05-13T04:01:23.845Z,7.45
2019-05-13T04:03:53.147Z,7.42
2019-05-13T04:06:23.663Z,7.38
2019-05-13T04:08:54.167Z,7.36
2019-05-13T04:11:24.175Z,7.32
2019-05-13T04:13:53.538Z,7.31
2019-05-13T04:16:23.946Z,7.30
2019-05-13T04:18:53.909Z,7.29
2019-05-13T04:21:23.782Z,7.29
2019-05-13T04:23:53.607Z,7.29
2019-05-13T04:26:23.835Z,7.30
2019-05-13T04:28:53.914Z,7.35
2019-05-13T04:31:23.275Z,7.40
2019-05-13T04:33:53.486Z,7.41
2019-05-13T04:36:23.866Z,7.45
2019-05-13T04:38:53.618Z,7.46
2019-05-13T04:41:23.369Z,7.47
2019-05-13T04:43:53.962Z,7.52
2019-05-13T04:46:23.712Z,7.53
2019-05-13T04:48:53.269Z,7.57
2019-05-13T04:51:23.182Z,7.63
2019-05-13T04:53:56.954Z,7.71
2019-05-13T04:56:24.152Z,7.75
2019-05-13T04:58:53.406Z,7.76
2019-05-13T05:02:05.030Z,7.75
2019-05-13T05:04:43.779Z,7.74
2019-05-13T05:07:42.067Z,7.75
2019-05-13T05:10:38.639Z,7.78
2019-05-13T05:13:36.410Z,7.81
2019-05-13T05:16:32.568Z,7.85
2019-05-13T05:19:23.638Z,7.88
2019-05-13T05:22:09.207Z,7.90
2019-05-13T05:24:52.119Z,7.89
2019-05-13T05:28:03.871Z,7.93
2019-05-13T05:31:06.407Z,7.92
2019-05-13T05:34:16.684Z,7.90
2019-05-13T05:37:11.801Z,7.89
2019-05-13T05:39:43.694Z,7.91
2019-05-13T05:42:16.229Z,7.94
2019-05-13T05:44:47.183Z,7.96
2019-05-13T05:47:21.331Z,7.99
2019-05-13T05:49:53.267Z,8.04
2019-05-13T05:52:24.474Z,8.04
2019-05-13T05:54:55.185Z,8.09
2019-05-13T05:57:26.384Z,8.13
2019-05-13T05:59:56.664Z,8.23
2019-05-13T06:02:28.838Z,8.36
2019-05-13T06:04:58.690Z,8.49
2019-05-13T06:07:28.434Z,8.60
2019-05-13T06:09:57.885Z,8.66
2019-05-13T06:12:28.425Z,8.67
2019-05-13T06:14:58.134Z,8.70
2019-05-13T06:17:27.538Z,8.72
2019-05-13T06:19:58.017Z,8.71
2019-05-13T06:22:27.441Z,8.77
2019-05-13T06:24:56.742Z,8.81
2019-05-13T06:27:26.077Z,8.85
2019-05-13T06:29:55.296Z,8.89
2019-05-13T06:32:26.540Z,8.94
2019-05-13T06:34:56.069Z,8.94
2019-05-13T06:37:25.501Z,8.99
2019-05-13T06:39:55.732Z,8.96
2019-05-13T06:42:25.070Z,8.97
2019-05-13T06:44:54.375Z,9.03
2019-05-13T06:47:23.593Z,9.10
2019-05-13T06:49:52.845Z,9.16
2019-05-13T06:52:22.314Z,9.21
2019-05-13T06:54:52.157Z,9.20
2019-05-13T06:57:22.141Z,9.20
2019-05-13T06:59:52.553Z,9.21
2019-05-13T07:02:22.229Z,9.21
2019-05-13T07:04:51.831Z,9.15
2019-05-13T07:07:22.073Z,9.08
2019-05-13T07:09:52.209Z,9.01
2019-05-13T07:12:22.023Z,8.98
2019-05-13T07:14:52.063Z,8.94
2019-05-13T07:17:22.369Z,8.92
2019-05-13T07:19:52.020Z,8.95
2019-05-13T07:22:22.981Z,9.01
2019-05-13T07:24:52.626Z,9.06
2019-05-13T07:27:22.960Z,9.06
2019-05-13T07:29:55.542Z,9.07
2019-05-13T07:32:23.755Z,9.10
2019-05-13T07:34:53.492Z,9.12
2019-05-13T07:37:23.534Z,9.16
2019-05-13T07:39:53.856Z,9.09
2019-05-13T07:42:23.173Z,9.06
2019-05-13T07:44:52.451Z,9.01
2019-05-13T07:47:22.432Z,9.01
2019-05-13T07:49:51.890Z,9.04
2019-05-13T07:52:22.758Z,9.00
2019-05-13T07:54:52.328Z,8.97
2019-05-13T07:57:21.650Z,8.82
2019-05-13T07:59:52.422Z,8.66
2019-05-13T08:02:22.081Z,8.60
2019-05-13T08:04:53.106Z,8.51
2019-05-13T08:07:22.783Z,8.57
2019-05-13T08:09:55.700Z,8.61
2019-05-13T08:12:23.296Z,8.61
2019-05-13T08:14:52.510Z,8.63
2019-05-13T08:17:22.493Z,8.62
2019-05-13T08:19:52.276Z,8.60
2019-05-13T08:22:22.536Z,8.57
2019-05-13T08:24:54.294Z,8.49
2019-05-13T08:27:30.368Z,8.45
2019-05-13T08:29:54.215Z,8.46
2019-05-13T08:32:23.535Z,8.44
2019-05-13T08:35:01.578Z,8.45
2019-05-13T08:37:23.910Z,8.50
2019-05-13T08:39:53.193Z,8.51
2019-05-13T08:42:23.496Z,8.49
2019-05-13T08:44:53.586Z,8.56
2019-05-13T08:47:22.796Z,8.71
2019-05-13T08:49:52.247Z,8.85
2019-05-13T08:52:22.046Z,8.72
2019-05-13T08:54:52.483Z,8.78
2019-05-13T08:57:22.383Z,8.91
2019-05-13T08:59:51.801Z,9.02
2019-05-13T09:02:22.153Z,9.16
2019-05-13T09:04:51.999Z,9.35
2019-05-13T09:07:24.206Z,9.38
2019-05-13T09:09:52.683Z,9.51
2019-05-13T09:14:53.114Z,9.72
2019-05-13T09:17:22.355Z,9.86
2019-05-13T09:19:52.178Z,10.02
2019-05-13T09:22:21.537Z,10.13
2019-05-13T09:27:22.605Z,10.40
2019-05-13T09:29:52.148Z,10.65
2019-05-13T09:32:21.699Z,10.92
2019-05-13T09:34:52.499Z,11.00
2019-05-13T09:37:22.593Z,11.03
2019-05-13T09:39:52.308Z,11.17
2019-05-13T09:42:21.840Z,11.34
2019-05-13T09:44:52.551Z,11.42
2019-05-13T09:47:22.361Z,11.37
2019-05-13T09:49:51.615Z,11.51
2019-05-13T09:52:23.226Z,11.85
2019-05-13T09:54:52.590Z,12.25
2019-05-13T09:57:22.120Z,12.91
2019-05-13T09:59:52.434Z,13.61
2019-05-13T10:02:21.972Z,14.96
2019-05-13T10:04:51.699Z,16.27
2019-05-13T10:07:22.926Z,16.82
2019-05-13T10:09:52.304Z,16.99
2019-05-13T10:12:24.324Z,17.14
2019-05-13T10:14:52.646Z,17.63
2019-05-13T10:17:22.354Z,18.05
2019-05-13T10:19:52.114Z,18.17
2019-05-13T10:22:22.171Z,18.29
2019-05-13T10:24:51.706Z,18.38
2019-05-13T10:27:22.358Z,17.83
2019-05-13T10:29:52.579Z,16.88
2019-05-13T10:32:22.348Z,16.06
2019-05-13T10:34:53.947Z,15.57
2019-05-13T10:37:23.265Z,15.24
2019-05-13T10:39:52.879Z,14.92
2019-05-13T10:42:22.492Z,14.83
2019-05-13T10:44:52.353Z,15.04
2019-05-13T10:47:22.710Z,15.19
2019-05-13T10:49:52.646Z,15.52
2019-05-13T10:52:22.947Z,15.51
2019-05-13T10:54:52.852Z,15.22
2019-05-13T10:57:22.424Z,15.26
2019-05-13T10:59:52.968Z,15.46
2019-05-13T11:02:22.370Z,15.73
2019-05-13T11:04:52.553Z,15.86
2019-05-13T11:07:22.590Z,15.90
2019-05-13T11:09:52.936Z,14.53
2019-05-13T11:12:28.038Z,15.27
2019-05-13T11:14:55.371Z,14.92
2019-05-13T11:17:30.884Z,14.52
2019-05-13T11:19:55.832Z,14.27
2019-05-13T11:22:25.059Z,14.09
2019-05-13T11:24:54.261Z,14.02
2019-05-13T11:27:23.761Z,14.03
2019-05-13T11:29:52.974Z,14.14
2019-05-13T11:32:22.448Z,14.42
2019-05-13T11:34:53.022Z,14.64
2019-05-13T11:37:23.350Z,14.83
2019-05-13T11:39:53.159Z,15.04
2019-05-13T11:42:22.876Z,15.17
2019-05-13T11:44:52.997Z,15.15
2019-05-13T11:47:22.525Z,15.05
2019-05-13T11:49:53.217Z,14.71
2019-05-13T11:52:22.837Z,14.58
2019-05-13T11:54:53.919Z,14.42
2019-05-13T11:57:23.528Z,14.22
2019-05-13T11:59:53.678Z,14.09
2019-05-13T12:02:23.537Z,14.00
2019-05-13T12:04:53.959Z,13.96
2019-05-13T12:07:23.733Z,14.01
2019-05-13T12:09:52.944Z,14.57
2019-05-13T12:12:25.058Z,15.26
2019-05-13T12:15:20.500Z,15.75
2019-05-13T12:17:24.288Z,16.53
2019-05-13T12:19:54.296Z,17.57
2019-05-13T12:22:24.236Z,18.43
2019-05-13T12:24:53.458Z,18.54
2019-05-13T12:27:23.565Z,18.32
2019-05-13T12:29:53.217Z,18.14
2019-05-13T12:32:22.670Z,17.99
2019-05-13T12:37:23.297Z,17.19
2019-05-13T12:39:53.417Z,16.66
2019-05-13T12:42:23.039Z,16.20
2019-05-13T12:45:08.985Z,15.89
2019-05-13T12:47:23.690Z,15.42
2019-05-13T12:49:53.016Z,14.91
2019-05-13T12:52:23.094Z,14.67
2019-05-13T12:54:53.082Z,14.71
2019-05-13T12:57:23.324Z,14.97
2019-05-13T12:59:52.815Z,15.47
2019-05-13T13:02:23.131Z,15.88
2019-05-13T13:05:10.775Z,15.93
2019-05-13T13:07:23.479Z,16.00
2019-05-13T13:09:54.071Z,15.94
2019-05-13T13:12:33.701Z,15.87
2019-05-13T13:14:54.908Z,16.60
2019-05-13T13:17:24.421Z,17.74
2019-05-13T13:19:56.805Z,18.06
2019-05-13T13:22:25.514Z,18.10
2019-05-13T13:24:57.393Z,18.70
2019-05-13T13:27:57.727Z,19.11
2019-05-13T13:30:03.279Z,18.71
2019-05-13T13:32:28.556Z,18.16
2019-05-13T13:34:57.785Z,17.60
2019-05-13T13:37:27.193Z,17.10
2019-05-13T13:39:56.775Z,16.80
2019-05-13T13:42:26.045Z,16.82
2019-05-13T13:44:55.474Z,17.87
2019-05-13T13:47:24.728Z,18.33
2019-05-13T13:49:54.000Z,18.77
2019-05-13T13:52:23.348Z,19.42
2019-05-13T13:55:02.147Z,19.03
2019-05-13T13:57:25.762Z,18.44
2019-05-13T14:00:20.835Z,17.74
2019-05-13T14:02:26.382Z,17.21
2019-05-13T14:04:56.225Z,16.78
2019-05-13T14:06:25.161Z,10.25
2019-05-13T14:06:33.066Z,17.64
2019-05-13T14:07:05.494Z,9.61
2019-05-13T14:07:34.387Z,16.48
2019-05-13T14:09:56.396Z,16.24
2019-05-13T14:12:25.741Z,16.03
2019-05-13T14:14:55.612Z,16.06
2019-05-13T14:17:24.929Z,16.44
2019-05-13T14:19:54.378Z,17.77
2019-05-13T14:22:23.643Z,19.10
2019-05-13T14:24:52.860Z,20.26
2019-05-13T14:27:22.501Z,20.89
2019-05-13T14:29:55.493Z,20.25
2019-05-13T14:32:24.904Z,19.68
2019-05-13T14:34:54.169Z,19.08
2019-05-13T14:37:23.405Z,18.48
2019-05-13T14:39:52.813Z,18.10
2019-05-13T14:42:22.865Z,17.80
2019-05-13T14:44:52.605Z,17.53
2019-05-13T14:47:22.328Z,17.21
2019-05-13T14:49:52.249Z,17.03
2019-05-13T14:52:22.354Z,17.26
2019-05-13T14:54:52.062Z,18.01
2019-05-13T14:57:21.908Z,19.49
2019-05-13T14:59:51.589Z,20.30
2019-05-13T15:02:21.034Z,21.00
2019-05-13T15:04:52.338Z,20.32
2019-05-13T15:07:21.762Z,19.33
2019-05-13T15:09:52.750Z,18.60
2019-05-13T15:12:21.980Z,17.77
2019-05-13T15:14:52.489Z,17.18
2019-05-13T15:17:22.105Z,16.96
2019-05-13T15:19:52.521Z,16.66
2019-05-13T15:22:22.718Z,16.30
2019-05-13T15:24:52.558Z,15.86
2019-05-13T15:27:22.427Z,15.40
2019-05-13T15:29:52.903Z,15.03
2019-05-13T15:32:22.174Z,14.74
2019-05-13T15:34:51.953Z,14.53
2019-05-13T15:37:21.728Z,14.40
2019-05-13T15:39:51.850Z,14.24
2019-05-13T15:42:21.518Z,14.13
2019-05-13T15:44:53.056Z,14.13
2019-05-13T15:47:24.000Z,14.90
2019-05-13T15:49:53.038Z,15.22
2019-05-13T15:52:23.366Z,15.08
2019-05-13T15:54:52.633Z,14.75
2019-05-13T15:57:22.162Z,14.45
2019-05-13T15:59:51.942Z,14.13
2019-05-13T16:02:22.603Z,13.88
2019-05-13T16:05:00.710Z,13.68
2019-05-13T16:07:23.271Z,13.54
2019-05-13T16:09:52.802Z,13.41
2019-05-13T16:12:22.207Z,13.41
2019-05-13T16:14:51.800Z,13.32
2019-05-13T16:17:30.606Z,13.25
2019-05-13T16:19:53.485Z,13.13
2019-05-13T16:22:23.267Z,12.98
2019-05-13T16:24:52.483Z,12.84
2019-05-13T16:27:22.373Z,12.80
2019-05-13T16:29:51.746Z,12.86
2019-05-13T16:32:22.719Z,12.88
2019-05-13T16:34:52.452Z,12.92
2019-05-13T16:37:22.067Z,12.91
2019-05-13T16:39:52.182Z,12.91
2019-05-13T16:42:22.469Z,12.91
2019-05-13T16:44:51.972Z,12.89
2019-05-13T16:47:21.383Z,12.85
2019-05-13T16:49:50.774Z,12.88
2019-05-13T16:52:22.076Z,12.79
2019-05-13T16:54:53.167Z,12.79
2019-05-13T16:57:22.187Z,12.71
2019-05-13T16:59:51.832Z,12.58
2019-05-13T17:02:21.885Z,12.58
2019-05-13T17:04:52.092Z,12.83
2019-05-13T17:07:21.502Z,12.83
2019-05-13T17:09:52.131Z,12.92
2019-05-13T17:12:21.578Z,12.94
2019-05-13T17:14:52.263Z,12.92
2019-05-13T17:17:21.913Z,12.88
2019-05-13T17:19:53.703Z,12.82
2019-05-13T17:22:22.115Z,12.51
2019-05-13T17:24:52.134Z,12.51
2019-05-13T17:27:21.538Z,12.37
2019-05-13T17:29:51.597Z,12.31
2019-05-13T17:32:22.221Z,12.31
2019-05-13T17:34:51.691Z,12.14
2019-05-13T17:37:22.120Z,12.15
2019-05-13T18:10:47.003Z,10.77
2019-05-13T18:13:16.155Z,10.68
2019-05-13T18:15:45.381Z,10.62
2019-05-13T18:18:14.909Z,10.55
2019-05-13T18:20:45.582Z,10.46
2019-05-13T18:23:14.927Z,10.38
2019-05-13T18:25:44.415Z,10.31
2019-05-13T18:28:27.505Z,10.25
2019-05-13T18:30:45.201Z,10.14
2019-05-13T18:33:15.142Z,9.96
2019-05-13T18:35:44.475Z,9.88
2019-05-13T18:38:14.606Z,9.82
2019-05-13T18:40:43.969Z,9.79
2019-05-13T18:43:13.209Z,9.76
2019-05-13T18:45:42.738Z,9.71
2019-05-13T18:48:12.367Z,9.67
2019-05-13T18:50:42.024Z,9.66
2019-05-13T18:53:11.482Z,9.57
2019-05-13T18:55:41.635Z,9.46
2019-05-13T18:58:11.751Z,9.35
2019-05-13T19:00:41.736Z,9.25
2019-05-13T19:03:12.442Z,9.15
2019-05-13T19:05:42.290Z,9.09
2019-05-13T19:08:13.684Z,9.02
2019-05-13T19:10:43.324Z,8.97
2019-05-13T19:13:12.755Z,8.89
2019-05-13T19:15:42.051Z,8.86
2019-05-13T19:18:12.245Z,8.82
2019-05-13T19:20:41.918Z,8.77
2019-05-13T19:23:11.924Z,8.70
2019-05-13T19:25:42.674Z,8.63
2019-05-13T19:28:12.119Z,8.58
2019-05-13T19:30:41.415Z,8.54
2019-05-13T19:33:12.423Z,8.49
2019-05-13T19:35:42.656Z,8.44
2019-05-13T19:38:12.290Z,8.38
2019-05-13T19:40:48.284Z,8.35
2019-05-13T19:43:44.865Z,8.29
2019-05-13T19:45:57.243Z,8.25
2019-05-13T19:48:32.348Z,8.21
2019-05-13T19:51:01.752Z,8.15
2019-05-13T19:53:31.921Z,8.10
2019-05-13T19:56:02.490Z,8.05
2019-05-13T19:58:33.526Z,7.98
2019-05-13T20:01:03.239Z,7.93
2019-05-13T20:03:32.673Z,7.91
2019-05-13T20:06:02.452Z,7.90
2019-05-13T20:08:32.294Z,7.88
2019-05-13T20:11:02.270Z,7.81
2019-05-13T20:13:34.025Z,7.74
2019-05-13T20:16:03.416Z,7.67
2019-05-13T20:18:32.636Z,7.62
2019-05-13T20:21:02.230Z,7.59
2019-05-13T20:23:32.034Z,7.55
2019-05-13T20:26:01.543Z,7.50
2019-05-13T20:28:31.671Z,7.47
2019-05-13T20:31:01.861Z,7.43
2019-05-13T20:33:32.124Z,7.41
2019-05-13T20:36:01.792Z,7.39
2019-05-13T20:38:31.707Z,7.30
2019-05-13T20:41:01.647Z,7.20
2019-05-13T20:43:32.820Z,7.12
2019-05-13T20:46:06.696Z,7.06
2019-05-13T20:48:36.048Z,7.03
2019-05-13T20:51:05.253Z,7.00
2019-05-13T20:53:34.650Z,6.94
2019-05-13T20:56:04.090Z,6.90
2019-05-13T20:58:33.363Z,6.86
2019-05-13T21:01:05.800Z,6.81
2019-05-13T21:03:37.886Z,6.75
2019-05-13T21:06:07.247Z,6.70
2019-05-13T21:08:36.580Z,6.65
2019-05-13T21:11:05.832Z,6.63
2019-05-13T21:13:38.094Z,6.60
2019-05-13T21:16:07.778Z,6.56
2019-05-13T21:18:37.238Z,6.54
2019-05-13T21:21:06.745Z,6.46
2019-05-13T21:23:35.962Z,6.41
2019-05-13T21:26:05.279Z,6.37
2019-05-13T21:28:34.923Z,6.34
2019-05-13T21:31:04.148Z,6.33
2019-05-13T21:33:33.403Z,6.31
2019-05-13T21:36:02.828Z,6.24
2019-05-13T21:38:32.582Z,6.17
2019-05-13T21:41:01.876Z,6.13
2019-05-13T21:43:32.403Z,6.09
2019-05-13T21:46:02.311Z,5.20
2019-05-13T21:48:32.661Z,6.01
2019-05-13T21:51:01.958Z,5.96
2019-05-13T21:53:32.601Z,5.94
2019-05-13T21:56:02.601Z,5.91
2019-05-13T21:58:32.084Z,5.89
2019-05-13T22:01:02.271Z,5.86
2019-05-13T22:03:33.568Z,5.84
2019-05-13T22:06:02.726Z,5.82
2019-05-13T22:08:32.235Z,5.77
2019-05-13T22:11:02.095Z,5.74
2019-05-13T22:13:31.726Z,5.70
2019-05-13T22:16:01.733Z,5.68
2019-05-13T22:18:31.741Z,5.67
2019-05-13T22:21:01.553Z,5.63
2019-05-13T22:23:32.197Z,5.57
2019-05-13T22:26:02.029Z,5.52
2019-05-13T22:28:31.566Z,5.49
2019-05-13T22:31:01.622Z,5.45
2019-05-13T22:33:32.386Z,5.40
2019-05-13T22:36:02.122Z,5.35
2019-05-13T22:38:32.297Z,5.32
2019-05-13T22:41:02.028Z,5.29
2019-05-13T22:43:31.970Z,5.26
2019-05-13T22:46:01.808Z,5.25
2019-05-13T22:48:31.936Z,5.22
2019-05-13T22:51:01.762Z,5.18
2019-05-13T22:53:31.841Z,5.17
2019-05-13T22:56:01.665Z,5.12
2019-05-13T22:58:32.158Z,5.10
2019-05-13T23:01:02.495Z,5.12
2019-05-13T23:03:32.606Z,5.09
2019-05-13T23:06:02.660Z,5.06
2019-05-13T23:08:32.558Z,5.03
2019-05-13T23:11:02.661Z,4.99
2019-05-13T23:13:31.876Z,4.96
2019-05-13T23:16:02.475Z,4.92
2019-05-13T23:18:32.000Z,4.92
2019-05-13T23:21:02.348Z,4.89
2019-05-13T23:23:31.833Z,4.85
2019-05-13T23:26:01.818Z,4.82
2019-05-13T23:28:32.298Z,4.78
2019-05-13T23:31:01.834Z,4.74
2019-05-13T23:33:31.610Z,4.73
2019-05-13T23:36:01.523Z,4.71
2019-05-13T23:38:31.876Z,4.68
2019-05-13T23:41:03.862Z,4.68
2019-05-13T23:43:33.079Z,4.64
2019-05-13T23:46:02.290Z,4.65
2019-05-13T23:48:32.182Z,4.64
2019-05-13T23:51:01.574Z,4.63
2019-05-13T23:53:31.498Z,4.59
2019-05-13T23:56:02.096Z,4.56
2019-05-13T23:58:32.581Z,4.53
